sensor_id;sensor_type;location;lat;lon;timestamp;temperature;humidity
26589;DHT22;14235;48.532;8.722;2022-07-10T00:02:09;17.90;93.80
26589;DHT22;14235;48.532;8.722;2022-07-10T00:04:34;17.90;94.10
26589;DHT22;14235;48.532;8.722;2022-07-10T00:07:00;17.80;94.30
26589;DHT22;14235;48.532;8.722;2022-07-10T00:09:27;17.70;94.50
26589;DHT22;14235;48.532;8.722;2022-07-10T00:11:53;17.70;94.60
26589;DHT22;14235;48.532;8.722;2022-07-10T00:14:19;17.80;94.80
26589;DHT22;14235;48.532;8.722;2022-07-10T00:16:45;17.80;94.90
26589;DHT22;14235;48.532;8.722;2022-07-10T00:19:11;17.70;95.00
26589;DHT22;14235;48.532;8.722;2022-07-10T00:21:36;17.60;95.10
26589;DHT22;14235;48.532;8.722;2022-07-10T00:24:02;17.60;95.40
26589;DHT22;14235;48.532;8.722;2022-07-10T00:26:28;17.30;95.90
26589;DHT22;14235;48.532;8.722;2022-07-10T00:28:53;17.30;96.30
26589;DHT22;14235;48.532;8.722;2022-07-10T00:31:20;17.20;96.40
26589;DHT22;14235;48.532;8.722;2022-07-10T00:33:46;17.30;96.60
26589;DHT22;14235;48.532;8.722;2022-07-10T00:36:11;17.00;96.90
26589;DHT22;14235;48.532;8.722;2022-07-10T00:38:37;17.20;97.10
26589;DHT22;14235;48.532;8.722;2022-07-10T00:41:03;17.30;97.20
26589;DHT22;14235;48.532;8.722;2022-07-10T00:43:28;17.10;97.30
26589;DHT22;14235;48.532;8.722;2022-07-10T00:45:54;17.20;97.50
26589;DHT22;14235;48.532;8.722;2022-07-10T00:48:19;17.20;97.40
26589;DHT22;14235;48.532;8.722;2022-07-10T00:50:45;17.20;97.50
26589;DHT22;14235;48.532;8.722;2022-07-10T00:53:13;17.30;97.50
26589;DHT22;14235;48.532;8.722;2022-07-10T00:55:39;17.20;97.50
26589;DHT22;14235;48.532;8.722;2022-07-10T00:58:09;17.30;97.60
26589;DHT22;14235;48.532;8.722;2022-07-10T01:00:36;17.00;97.90
26589;DHT22;14235;48.532;8.722;2022-07-10T01:03:03;17.30;98.10
26589;DHT22;14235;48.532;8.722;2022-07-10T01:05:28;17.40;98.20
26589;DHT22;14235;48.532;8.722;2022-07-10T01:07:54;17.10;98.10
26589;DHT22;14235;48.532;8.722;2022-07-10T01:10:20;17.40;98.10
26589;DHT22;14235;48.532;8.722;2022-07-10T01:12:46;17.20;97.90
26589;DHT22;14235;48.532;8.722;2022-07-10T01:15:12;17.00;98.00
26589;DHT22;14235;48.532;8.722;2022-07-10T01:17:37;17.00;98.40
26589;DHT22;14235;48.532;8.722;2022-07-10T01:20:09;16.90;99.10
26589;DHT22;14235;48.532;8.722;2022-07-10T01:22:38;16.90;98.90
26589;DHT22;14235;48.532;8.722;2022-07-10T01:25:05;16.90;99.00
26589;DHT22;14235;48.532;8.722;2022-07-10T01:27:31;16.90;99.00
26589;DHT22;14235;48.532;8.722;2022-07-10T01:29:57;17.00;99.20
26589;DHT22;14235;48.532;8.722;2022-07-10T01:32:24;17.00;99.30
26589;DHT22;14235;48.532;8.722;2022-07-10T01:34:49;17.10;99.40
26589;DHT22;14235;48.532;8.722;2022-07-10T01:37:15;17.00;99.20
26589;DHT22;14235;48.532;8.722;2022-07-10T01:39:40;17.00;99.20
26589;DHT22;14235;48.532;8.722;2022-07-10T01:42:06;16.90;99.30
26589;DHT22;14235;48.532;8.722;2022-07-10T01:44:31;16.90;99.20
26589;DHT22;14235;48.532;8.722;2022-07-10T01:46:57;17.00;99.40
26589;DHT22;14235;48.532;8.722;2022-07-10T01:49:22;17.00;99.20
26589;DHT22;14235;48.532;8.722;2022-07-10T01:51:48;17.10;99.30
26589;DHT22;14235;48.532;8.722;2022-07-10T01:54:14;17.30;99.30
26589;DHT22;14235;48.532;8.722;2022-07-10T01:56:39;17.40;99.50
26589;DHT22;14235;48.532;8.722;2022-07-10T01:59:05;17.10;99.60
26589;DHT22;14235;48.532;8.722;2022-07-10T02:01:31;17.00;99.60
26589;DHT22;14235;48.532;8.722;2022-07-10T02:03:57;17.00;99.60
26589;DHT22;14235;48.532;8.722;2022-07-10T02:06:41;17.00;99.90
26589;DHT22;14235;48.532;8.722;2022-07-10T02:09:07;17.10;99.90
26589;DHT22;14235;48.532;8.722;2022-07-10T02:11:32;16.90;99.90
26589;DHT22;14235;48.532;8.722;2022-07-10T02:13:58;16.70;99.90
26589;DHT22;14235;48.532;8.722;2022-07-10T02:16:23;16.90;99.90
26589;DHT22;14235;48.532;8.722;2022-07-10T02:18:49;16.70;99.90
26589;DHT22;14235;48.532;8.722;2022-07-10T02:21:14;16.80;99.90
26589;DHT22;14235;48.532;8.722;2022-07-10T02:23:40;16.80;99.90
26589;DHT22;14235;48.532;8.722;2022-07-10T02:26:06;17.20;99.90
26589;DHT22;14235;48.532;8.722;2022-07-10T02:28:32;16.80;99.90
26589;DHT22;14235;48.532;8.722;2022-07-10T02:33:25;16.50;99.90
26589;DHT22;14235;48.532;8.722;2022-07-10T02:35:50;16.60;99.90
26589;DHT22;14235;48.532;8.722;2022-07-10T02:38:16;16.70;99.90
26589;DHT22;14235;48.532;8.722;2022-07-10T02:40:42;16.90;99.90
26589;DHT22;14235;48.532;8.722;2022-07-10T02:43:07;16.60;99.90
26589;DHT22;14235;48.532;8.722;2022-07-10T02:45:33;16.30;99.90
26589;DHT22;14235;48.532;8.722;2022-07-10T02:47:58;16.50;99.90
26589;DHT22;14235;48.532;8.722;2022-07-10T02:50:24;16.40;99.90
26589;DHT22;14235;48.532;8.722;2022-07-10T02:52:49;16.30;99.90
26589;DHT22;14235;48.532;8.722;2022-07-10T02:55:15;16.10;99.90
26589;DHT22;14235;48.532;8.722;2022-07-10T02:57:40;16.20;99.90
26589;DHT22;14235;48.532;8.722;2022-07-10T03:00:06;16.20;99.90
26589;DHT22;14235;48.532;8.722;2022-07-10T03:07:24;15.80;99.90
26589;DHT22;14235;48.532;8.722;2022-07-10T03:09:50;15.90;99.90
26589;DHT22;14235;48.532;8.722;2022-07-10T03:12:15;15.80;99.90
26589;DHT22;14235;48.532;8.722;2022-07-10T03:14:41;15.80;99.90
26589;DHT22;14235;48.532;8.722;2022-07-10T03:17:06;15.90;99.90
26589;DHT22;14235;48.532;8.722;2022-07-10T03:24:25;15.60;99.90
26589;DHT22;14235;48.532;8.722;2022-07-10T03:26:50;15.50;99.90
26589;DHT22;14235;48.532;8.722;2022-07-10T03:29:16;15.50;99.90
26589;DHT22;14235;48.532;8.722;2022-07-10T03:31:41;15.50;99.90
26589;DHT22;14235;48.532;8.722;2022-07-10T03:34:08;15.60;99.90
26589;DHT22;14235;48.532;8.722;2022-07-10T03:41:25;15.30;99.90
26589;DHT22;14235;48.532;8.722;2022-07-10T03:43:51;15.80;99.90
26589;DHT22;14235;48.532;8.722;2022-07-10T03:46:16;15.50;99.90
26589;DHT22;14235;48.532;8.722;2022-07-10T03:48:42;15.50;99.90
26589;DHT22;14235;48.532;8.722;2022-07-10T03:51:07;15.50;99.90
26589;DHT22;14235;48.532;8.722;2022-07-10T04:00:52;15.30;99.90
26589;DHT22;14235;48.532;8.722;2022-07-10T04:03:18;15.20;99.90
26589;DHT22;14235;48.532;8.722;2022-07-10T04:05:43;15.40;99.90
26589;DHT22;14235;48.532;8.722;2022-07-10T04:10:35;15.10;99.90
26589;DHT22;14235;48.532;8.722;2022-07-10T04:13:01;15.40;99.90
26589;DHT22;14235;48.532;8.722;2022-07-10T04:17:53;15.00;99.90
26589;DHT22;14235;48.532;8.722;2022-07-10T04:20:19;15.00;99.90
26589;DHT22;14235;48.532;8.722;2022-07-10T04:22:45;15.20;99.90
26589;DHT22;14235;48.532;8.722;2022-07-10T04:25:11;15.20;99.90
26589;DHT22;14235;48.532;8.722;2022-07-10T04:27:37;15.20;99.90
26589;DHT22;14235;48.532;8.722;2022-07-10T04:30:04;15.00;99.90
26589;DHT22;14235;48.532;8.722;2022-07-10T04:32:30;15.00;99.90
26589;DHT22;14235;48.532;8.722;2022-07-10T04:34:57;15.20;99.90
26589;DHT22;14235;48.532;8.722;2022-07-10T04:37:22;15.10;99.90
26589;DHT22;14235;48.532;8.722;2022-07-10T04:39:48;15.00;99.90
26589;DHT22;14235;48.532;8.722;2022-07-10T04:42:14;15.30;99.90
26589;DHT22;14235;48.532;8.722;2022-07-10T04:44:39;15.30;99.90
26589;DHT22;14235;48.532;8.722;2022-07-10T04:47:05;15.40;99.90
26589;DHT22;14235;48.532;8.722;2022-07-10T04:49:32;15.00;99.90
26589;DHT22;14235;48.532;8.722;2022-07-10T04:51:58;15.00;99.90
26589;DHT22;14235;48.532;8.722;2022-07-10T04:54:24;15.20;99.90
26589;DHT22;14235;48.532;8.722;2022-07-10T04:56:49;15.10;99.90
26589;DHT22;14235;48.532;8.722;2022-07-10T04:59:15;15.50;99.90
26589;DHT22;14235;48.532;8.722;2022-07-10T05:01:41;15.40;99.90
26589;DHT22;14235;48.532;8.722;2022-07-10T05:04:06;15.60;99.90
26589;DHT22;14235;48.532;8.722;2022-07-10T05:06:32;15.30;99.90
26589;DHT22;14235;48.532;8.722;2022-07-10T05:08:58;15.80;99.90
26589;DHT22;14235;48.532;8.722;2022-07-10T05:11:25;15.80;99.90
26589;DHT22;14235;48.532;8.722;2022-07-10T05:13:51;15.80;99.90
26589;DHT22;14235;48.532;8.722;2022-07-10T05:16:17;15.90;99.90
26589;DHT22;14235;48.532;8.722;2022-07-10T05:18:43;16.10;99.90
26589;DHT22;14235;48.532;8.722;2022-07-10T05:21:09;16.00;99.90
26589;DHT22;14235;48.532;8.722;2022-07-10T05:23:35;16.30;99.90
26589;DHT22;14235;48.532;8.722;2022-07-10T05:26:01;16.20;99.90
26589;DHT22;14235;48.532;8.722;2022-07-10T05:28:26;16.20;99.90
26589;DHT22;14235;48.532;8.722;2022-07-10T05:30:52;16.20;99.90
26589;DHT22;14235;48.532;8.722;2022-07-10T05:35:44;16.00;99.90
26589;DHT22;14235;48.532;8.722;2022-07-10T05:38:09;16.00;99.90
26589;DHT22;14235;48.532;8.722;2022-07-10T05:40:35;16.00;99.90
26589;DHT22;14235;48.532;8.722;2022-07-10T05:43:00;15.90;99.90
26589;DHT22;14235;48.532;8.722;2022-07-10T05:45:26;16.30;99.90
26589;DHT22;14235;48.532;8.722;2022-07-10T05:47:52;16.10;99.90
26589;DHT22;14235;48.532;8.722;2022-07-10T05:50:17;16.00;99.90
26589;DHT22;14235;48.532;8.722;2022-07-10T05:52:43;15.90;99.90
26589;DHT22;14235;48.532;8.722;2022-07-10T05:55:09;16.10;99.90
26589;DHT22;14235;48.532;8.722;2022-07-10T05:57:35;16.00;99.90
26589;DHT22;14235;48.532;8.722;2022-07-10T06:00:02;15.90;99.90
26589;DHT22;14235;48.532;8.722;2022-07-10T06:02:29;16.00;99.90
26589;DHT22;14235;48.532;8.722;2022-07-10T06:04:54;16.10;99.90
26589;DHT22;14235;48.532;8.722;2022-07-10T06:07:20;16.00;99.90
26589;DHT22;14235;48.532;8.722;2022-07-10T06:09:46;16.30;99.90
26589;DHT22;14235;48.532;8.722;2022-07-10T06:12:11;16.10;99.90
26589;DHT22;14235;48.532;8.722;2022-07-10T06:14:38;16.20;99.90
26589;DHT22;14235;48.532;8.722;2022-07-10T06:17:03;16.10;99.90
26589;DHT22;14235;48.532;8.722;2022-07-10T06:19:29;16.10;99.90
26589;DHT22;14235;48.532;8.722;2022-07-10T06:21:55;16.00;99.90
26589;DHT22;14235;48.532;8.722;2022-07-10T06:24:39;15.90;99.90
26589;DHT22;14235;48.532;8.722;2022-07-10T06:27:04;16.30;99.90
26589;DHT22;14235;48.532;8.722;2022-07-10T06:29:30;16.20;99.90
26589;DHT22;14235;48.532;8.722;2022-07-10T06:31:56;15.90;99.90
26589;DHT22;14235;48.532;8.722;2022-07-10T06:34:21;16.10;99.90
26589;DHT22;14235;48.532;8.722;2022-07-10T06:36:47;16.40;99.90
26589;DHT22;14235;48.532;8.722;2022-07-10T06:39:12;16.50;99.90
26589;DHT22;14235;48.532;8.722;2022-07-10T06:41:38;16.60;99.90
26589;DHT22;14235;48.532;8.722;2022-07-10T06:44:04;16.50;99.90
26589;DHT22;14235;48.532;8.722;2022-07-10T06:46:30;16.50;99.90
26589;DHT22;14235;48.532;8.722;2022-07-10T06:48:56;16.60;99.90
26589;DHT22;14235;48.532;8.722;2022-07-10T06:51:21;16.40;99.90
26589;DHT22;14235;48.532;8.722;2022-07-10T06:53:47;16.70;99.90
26589;DHT22;14235;48.532;8.722;2022-07-10T06:58:41;16.20;99.90
26589;DHT22;14235;48.532;8.722;2022-07-10T07:01:06;16.50;99.90
26589;DHT22;14235;48.532;8.722;2022-07-10T07:03:32;16.60;99.90
26589;DHT22;14235;48.532;8.722;2022-07-10T07:05:57;17.50;99.90
26589;DHT22;14235;48.532;8.722;2022-07-10T07:08:23;16.80;99.90
26589;DHT22;14235;48.532;8.722;2022-07-10T07:10:49;16.90;99.90
26589;DHT22;14235;48.532;8.722;2022-07-10T07:13:14;16.80;99.90
26589;DHT22;14235;48.532;8.722;2022-07-10T07:15:40;16.70;99.90
26589;DHT22;14235;48.532;8.722;2022-07-10T07:18:12;16.50;99.90
26589;DHT22;14235;48.532;8.722;2022-07-10T07:20:38;16.70;99.90
26589;DHT22;14235;48.532;8.722;2022-07-10T07:23:23;16.70;99.90
26589;DHT22;14235;48.532;8.722;2022-07-10T07:25:49;16.40;99.90
26589;DHT22;14235;48.532;8.722;2022-07-10T07:28:15;16.40;99.90
26589;DHT22;14235;48.532;8.722;2022-07-10T07:30:45;16.20;99.90
26589;DHT22;14235;48.532;8.722;2022-07-10T07:33:11;16.30;99.90
26589;DHT22;14235;48.532;8.722;2022-07-10T07:35:36;16.50;99.90
26589;DHT22;14235;48.532;8.722;2022-07-10T07:38:03;16.30;99.90
26589;DHT22;14235;48.532;8.722;2022-07-10T07:40:28;16.40;99.90
26589;DHT22;14235;48.532;8.722;2022-07-10T07:42:54;16.30;99.90
26589;DHT22;14235;48.532;8.722;2022-07-10T07:45:22;16.50;99.90
26589;DHT22;14235;48.532;8.722;2022-07-10T07:47:50;16.50;99.90
26589;DHT22;14235;48.532;8.722;2022-07-10T07:50:21;16.70;99.90
26589;DHT22;14235;48.532;8.722;2022-07-10T07:52:47;16.60;99.90
26589;DHT22;14235;48.532;8.722;2022-07-10T07:55:14;16.80;99.90
26589;DHT22;14235;48.532;8.722;2022-07-10T07:57:40;16.90;99.90
26589;DHT22;14235;48.532;8.722;2022-07-10T08:00:07;16.60;99.90
26589;DHT22;14235;48.532;8.722;2022-07-10T08:02:34;16.60;99.90
26589;DHT22;14235;48.532;8.722;2022-07-10T08:04:59;16.70;99.90
26589;DHT22;14235;48.532;8.722;2022-07-10T08:07:34;17.10;99.90
26589;DHT22;14235;48.532;8.722;2022-07-10T08:09:59;17.20;99.90
26589;DHT22;14235;48.532;8.722;2022-07-10T08:12:25;17.20;99.90
26589;DHT22;14235;48.532;8.722;2022-07-10T08:14:50;17.20;99.90
26589;DHT22;14235;48.532;8.722;2022-07-10T08:17:16;17.30;99.90
26589;DHT22;14235;48.532;8.722;2022-07-10T08:19:42;17.30;99.90
26589;DHT22;14235;48.532;8.722;2022-07-10T08:22:07;17.10;99.90
26589;DHT22;14235;48.532;8.722;2022-07-10T08:24:33;17.30;99.90
26589;DHT22;14235;48.532;8.722;2022-07-10T08:26:58;17.40;99.90
26589;DHT22;14235;48.532;8.722;2022-07-10T08:29:24;17.30;99.90
26589;DHT22;14235;48.532;8.722;2022-07-10T08:31:49;17.30;99.90
26589;DHT22;14235;48.532;8.722;2022-07-10T08:34:15;17.60;99.90
26589;DHT22;14235;48.532;8.722;2022-07-10T08:36:40;17.60;99.90
26589;DHT22;14235;48.532;8.722;2022-07-10T08:39:06;17.70;99.90
26589;DHT22;14235;48.532;8.722;2022-07-10T08:41:32;17.70;99.90
26589;DHT22;14235;48.532;8.722;2022-07-10T08:44:00;17.50;99.90
26589;DHT22;14235;48.532;8.722;2022-07-10T08:46:27;17.50;99.90
26589;DHT22;14235;48.532;8.722;2022-07-10T08:48:53;17.40;99.90
26589;DHT22;14235;48.532;8.722;2022-07-10T08:51:41;17.40;99.90
26589;DHT22;14235;48.532;8.722;2022-07-10T08:54:09;17.40;99.90
26589;DHT22;14235;48.532;8.722;2022-07-10T08:56:35;17.60;99.90
26589;DHT22;14235;48.532;8.722;2022-07-10T08:59:03;17.60;99.90
26589;DHT22;14235;48.532;8.722;2022-07-10T09:01:30;17.70;99.90
26589;DHT22;14235;48.532;8.722;2022-07-10T09:03:55;17.60;99.90
26589;DHT22;14235;48.532;8.722;2022-07-10T09:06:21;17.80;99.90
26589;DHT22;14235;48.532;8.722;2022-07-10T09:09:06;17.90;99.90
26589;DHT22;14235;48.532;8.722;2022-07-10T09:11:32;17.60;99.90
26589;DHT22;14235;48.532;8.722;2022-07-10T09:13:59;18.00;99.90
26589;DHT22;14235;48.532;8.722;2022-07-10T09:16:29;18.00;99.90
26589;DHT22;14235;48.532;8.722;2022-07-10T09:18:56;18.20;99.90
26589;DHT22;14235;48.532;8.722;2022-07-10T09:21:23;18.50;99.90
26589;DHT22;14235;48.532;8.722;2022-07-10T09:23:49;18.30;99.90
26589;DHT22;14235;48.532;8.722;2022-07-10T09:26:15;18.40;99.90
26589;DHT22;14235;48.532;8.722;2022-07-10T09:28:41;18.40;99.90
26589;DHT22;14235;48.532;8.722;2022-07-10T09:33:34;18.50;99.90
26589;DHT22;14235;48.532;8.722;2022-07-10T09:36:04;18.70;99.90
26589;DHT22;14235;48.532;8.722;2022-07-10T09:51:48;18.80;99.90
26589;DHT22;14235;48.532;8.722;2022-07-10T09:54:14;19.00;99.90
26589;DHT22;14235;48.532;8.722;2022-07-10T09:56:45;19.20;99.90
26589;DHT22;14235;48.532;8.722;2022-07-10T09:59:16;19.30;99.90
26589;DHT22;14235;48.532;8.722;2022-07-10T10:01:49;19.10;98.30
26589;DHT22;14235;48.532;8.722;2022-07-10T10:04:19;19.00;98.60
26589;DHT22;14235;48.532;8.722;2022-07-10T10:06:51;19.20;99.40
26589;DHT22;14235;48.532;8.722;2022-07-10T10:09:34;19.10;99.70
26589;DHT22;14235;48.532;8.722;2022-07-10T10:12:08;19.10;99.10
26589;DHT22;14235;48.532;8.722;2022-07-10T10:14:38;19.20;99.90
26589;DHT22;14235;48.532;8.722;2022-07-10T10:17:05;19.20;99.80
26589;DHT22;14235;48.532;8.722;2022-07-10T10:19:32;19.40;99.60
26589;DHT22;14235;48.532;8.722;2022-07-10T10:27:11;19.30;98.40
26589;DHT22;14235;48.532;8.722;2022-07-10T10:29:37;19.30;98.10
26589;DHT22;14235;48.532;8.722;2022-07-10T10:32:04;19.00;98.40
26589;DHT22;14235;48.532;8.722;2022-07-10T10:34:44;19.30;99.90
26589;DHT22;14235;48.532;8.722;2022-07-10T10:37:38;19.50;99.60
26589;DHT22;14235;48.532;8.722;2022-07-10T10:40:07;19.50;98.00
26589;DHT22;14235;48.532;8.722;2022-07-10T10:42:41;19.50;96.40
26589;DHT22;14235;48.532;8.722;2022-07-10T10:45:33;19.60;96.50
26589;DHT22;14235;48.532;8.722;2022-07-10T10:48:10;19.90;96.50
26589;DHT22;14235;48.532;8.722;2022-07-10T10:50:41;19.90;99.90
26589;DHT22;14235;48.532;8.722;2022-07-10T10:58:28;19.80;98.00
26589;DHT22;14235;48.532;8.722;2022-07-10T11:01:24;20.40;96.00
26589;DHT22;14235;48.532;8.722;2022-07-10T11:06:50;20.50;94.70
26589;DHT22;14235;48.532;8.722;2022-07-10T11:09:30;20.40;93.90
26589;DHT22;14235;48.532;8.722;2022-07-10T11:12:07;20.40;94.90
26589;DHT22;14235;48.532;8.722;2022-07-10T11:14:37;20.50;93.80
26589;DHT22;14235;48.532;8.722;2022-07-10T11:17:04;20.60;94.40
26589;DHT22;14235;48.532;8.722;2022-07-10T11:19:31;20.70;94.20
26589;DHT22;14235;48.532;8.722;2022-07-10T11:29:57;20.60;94.60
26589;DHT22;14235;48.532;8.722;2022-07-10T11:32:23;20.60;94.40
26589;DHT22;14235;48.532;8.722;2022-07-10T11:34:48;20.60;94.70
26589;DHT22;14235;48.532;8.722;2022-07-10T11:37:15;20.60;95.70
26589;DHT22;14235;48.532;8.722;2022-07-10T11:39:42;20.60;95.30
26589;DHT22;14235;48.532;8.722;2022-07-10T11:44:43;20.70;96.00
26589;DHT22;14235;48.532;8.722;2022-07-10T11:47:09;20.70;95.40
26589;DHT22;14235;48.532;8.722;2022-07-10T11:49:44;20.70;95.50
26589;DHT22;14235;48.532;8.722;2022-07-10T11:52:10;21.30;95.80
26589;DHT22;14235;48.532;8.722;2022-07-10T11:54:36;20.90;94.40
26589;DHT22;14235;48.532;8.722;2022-07-10T11:57:06;20.90;94.80
26589;DHT22;14235;48.532;8.722;2022-07-10T12:02:00;20.90;94.40
26589;DHT22;14235;48.532;8.722;2022-07-10T12:04:29;20.90;94.10
26589;DHT22;14235;48.532;8.722;2022-07-10T12:06:55;20.80;94.00
26589;DHT22;14235;48.532;8.722;2022-07-10T12:09:24;20.90;94.80
26589;DHT22;14235;48.532;8.722;2022-07-10T12:12:06;21.00;93.30
26589;DHT22;14235;48.532;8.722;2022-07-10T12:14:32;21.10;95.10
26589;DHT22;14235;48.532;8.722;2022-07-10T12:16:59;21.10;93.50
26589;DHT22;14235;48.532;8.722;2022-07-10T12:19:27;21.20;93.30
26589;DHT22;14235;48.532;8.722;2022-07-10T12:21:56;21.30;93.80
26589;DHT22;14235;48.532;8.722;2022-07-10T12:24:22;21.10;93.30
26589;DHT22;14235;48.532;8.722;2022-07-10T12:26:50;21.50;93.10
26589;DHT22;14235;48.532;8.722;2022-07-10T12:29:20;21.50;90.90
26589;DHT22;14235;48.532;8.722;2022-07-10T12:31:47;21.50;91.50
26589;DHT22;14235;48.532;8.722;2022-07-10T12:34:13;21.60;90.90
26589;DHT22;14235;48.532;8.722;2022-07-10T12:36:52;21.70;90.80
26589;DHT22;14235;48.532;8.722;2022-07-10T12:39:19;21.50;90.50
26589;DHT22;14235;48.532;8.722;2022-07-10T12:42:06;21.50;90.00
26589;DHT22;14235;48.532;8.722;2022-07-10T12:44:44;21.60;89.40
26589;DHT22;14235;48.532;8.722;2022-07-10T12:47:14;21.50;86.80
26589;DHT22;14235;48.532;8.722;2022-07-10T12:50:03;21.60;90.40
26589;DHT22;14235;48.532;8.722;2022-07-10T12:52:38;21.80;84.50
26589;DHT22;14235;48.532;8.722;2022-07-10T12:55:15;21.80;83.70
26589;DHT22;14235;48.532;8.722;2022-07-10T12:58:00;21.90;85.20
26589;DHT22;14235;48.532;8.722;2022-07-10T13:00:31;21.80;88.10
26589;DHT22;14235;48.532;8.722;2022-07-10T13:03:00;21.90;89.90
26589;DHT22;14235;48.532;8.722;2022-07-10T13:05:33;22.00;86.50
26589;DHT22;14235;48.532;8.722;2022-07-10T13:08:13;22.00;84.10
26589;DHT22;14235;48.532;8.722;2022-07-10T13:10:41;22.30;84.10
26589;DHT22;14235;48.532;8.722;2022-07-10T13:13:07;22.00;82.50
26589;DHT22;14235;48.532;8.722;2022-07-10T13:15:33;22.00;82.10
26589;DHT22;14235;48.532;8.722;2022-07-10T13:18:13;22.10;81.70
26589;DHT22;14235;48.532;8.722;2022-07-10T13:20:38;22.10;81.40
26589;DHT22;14235;48.532;8.722;2022-07-10T13:23:04;22.10;83.30
26589;DHT22;14235;48.532;8.722;2022-07-10T13:25:30;22.20;83.50
26589;DHT22;14235;48.532;8.722;2022-07-10T13:27:56;22.20;82.00
26589;DHT22;14235;48.532;8.722;2022-07-10T13:30:21;22.20;80.80
26589;DHT22;14235;48.532;8.722;2022-07-10T13:32:47;22.30;82.30
26589;DHT22;14235;48.532;8.722;2022-07-10T13:35:12;22.30;84.50
26589;DHT22;14235;48.532;8.722;2022-07-10T13:47:22;22.50;79.70
26589;DHT22;14235;48.532;8.722;2022-07-10T13:52:16;22.80;77.50
26589;DHT22;14235;48.532;8.722;2022-07-10T13:54:42;22.40;75.20
26589;DHT22;14235;48.532;8.722;2022-07-10T13:57:08;22.40;77.40
26589;DHT22;14235;48.532;8.722;2022-07-10T14:01:59;22.60;58.20
26589;DHT22;14235;48.532;8.722;2022-07-10T14:04:25;22.60;58.30
26589;DHT22;14235;48.532;8.722;2022-07-10T14:06:50;22.70;58.20
26589;DHT22;14235;48.532;8.722;2022-07-10T14:09:16;22.70;58.10
26589;DHT22;14235;48.532;8.722;2022-07-10T14:11:41;22.50;57.60
26589;DHT22;14235;48.532;8.722;2022-07-10T14:14:09;22.60;57.80
26589;DHT22;14235;48.532;8.722;2022-07-10T14:16:36;22.80;57.80
26589;DHT22;14235;48.532;8.722;2022-07-10T14:19:02;23.00;57.20
26589;DHT22;14235;48.532;8.722;2022-07-10T14:21:27;22.70;56.70
26589;DHT22;14235;48.532;8.722;2022-07-10T14:23:53;22.80;56.70
26589;DHT22;14235;48.532;8.722;2022-07-10T14:26:21;22.80;58.50
26589;DHT22;14235;48.532;8.722;2022-07-10T14:28:48;22.90;57.70
26589;DHT22;14235;48.532;8.722;2022-07-10T14:31:13;22.90;58.10
26589;DHT22;14235;48.532;8.722;2022-07-10T14:33:39;23.00;59.60
26589;DHT22;14235;48.532;8.722;2022-07-10T14:36:05;23.00;59.50
26589;DHT22;14235;48.532;8.722;2022-07-10T14:38:32;23.00;59.80
26589;DHT22;14235;48.532;8.722;2022-07-10T14:43:24;24.50;77.30
26589;DHT22;14235;48.532;8.722;2022-07-10T14:45:51;23.60;53.70
26589;DHT22;14235;48.532;8.722;2022-07-10T14:48:17;23.50;54.50
26589;DHT22;14235;48.532;8.722;2022-07-10T14:50:42;23.70;56.00
26589;DHT22;14235;48.532;8.722;2022-07-10T14:53:08;23.60;56.70
26589;DHT22;14235;48.532;8.722;2022-07-10T14:55:35;23.40;56.70
26589;DHT22;14235;48.532;8.722;2022-07-10T14:58:01;24.60;60.00
26589;DHT22;14235;48.532;8.722;2022-07-10T15:00:27;24.70;60.50
26589;DHT22;14235;48.532;8.722;2022-07-10T15:02:52;24.70;60.60
26589;DHT22;14235;48.532;8.722;2022-07-10T15:05:18;24.40;61.70
26589;DHT22;14235;48.532;8.722;2022-07-10T15:07:43;24.20;61.60
26589;DHT22;14235;48.532;8.722;2022-07-10T15:12:35;25.20;61.20
26589;DHT22;14235;48.532;8.722;2022-07-10T15:15:04;25.80;62.40
26589;DHT22;14235;48.532;8.722;2022-07-10T15:17:32;26.20;74.30
26589;DHT22;14235;48.532;8.722;2022-07-10T15:19:57;26.30;66.50
26589;DHT22;14235;48.532;8.722;2022-07-10T15:24:49;28.10;42.70
26589;DHT22;14235;48.532;8.722;2022-07-10T15:27:15;27.90;42.60
26589;DHT22;14235;48.532;8.722;2022-07-10T15:29:41;28.60;43.50
26589;DHT22;14235;48.532;8.722;2022-07-10T15:32:07;29.00;45.50
26589;DHT22;14235;48.532;8.722;2022-07-10T15:36:58;31.20;39.00
26589;DHT22;14235;48.532;8.722;2022-07-10T15:39:24;31.60;37.00
26589;DHT22;14235;48.532;8.722;2022-07-10T15:41:50;30.90;37.40
26589;DHT22;14235;48.532;8.722;2022-07-10T15:44:15;30.00;38.40
26589;DHT22;14235;48.532;8.722;2022-07-10T15:46:41;30.60;37.70
26589;DHT22;14235;48.532;8.722;2022-07-10T15:49:06;31.90;35.20
26589;DHT22;14235;48.532;8.722;2022-07-10T15:51:32;32.20;34.40
26589;DHT22;14235;48.532;8.722;2022-07-10T15:53:58;33.50;33.20
26589;DHT22;14235;48.532;8.722;2022-07-10T15:56:24;32.10;34.40
26589;DHT22;14235;48.532;8.722;2022-07-10T15:58:49;32.90;35.20
26589;DHT22;14235;48.532;8.722;2022-07-10T16:01:15;32.20;34.00
26589;DHT22;14235;48.532;8.722;2022-07-10T16:03:41;31.60;34.10
26589;DHT22;14235;48.532;8.722;2022-07-10T16:06:09;31.90;34.90
26589;DHT22;14235;48.532;8.722;2022-07-10T16:08:36;31.90;34.00
26589;DHT22;14235;48.532;8.722;2022-07-10T16:11:01;32.70;33.80
26589;DHT22;14235;48.532;8.722;2022-07-10T16:13:27;33.10;32.40
26589;DHT22;14235;48.532;8.722;2022-07-10T16:15:53;33.60;32.20
26589;DHT22;14235;48.532;8.722;2022-07-10T16:18:19;33.80;31.60
26589;DHT22;14235;48.532;8.722;2022-07-10T16:20:44;35.20;30.00
26589;DHT22;14235;48.532;8.722;2022-07-10T16:23:10;33.00;31.30
26589;DHT22;14235;48.532;8.722;2022-07-10T16:25:36;33.00;32.40
26589;DHT22;14235;48.532;8.722;2022-07-10T16:28:20;34.20;31.80
26589;DHT22;14235;48.532;8.722;2022-07-10T16:30:47;34.30;30.30
26589;DHT22;14235;48.532;8.722;2022-07-10T16:33:13;32.20;31.50
26589;DHT22;14235;48.532;8.722;2022-07-10T16:35:38;31.00;33.50
26589;DHT22;14235;48.532;8.722;2022-07-10T16:38:04;32.20;32.40
26589;DHT22;14235;48.532;8.722;2022-07-10T16:40:29;32.10;32.70
26589;DHT22;14235;48.532;8.722;2022-07-10T16:42:55;30.70;34.10
26589;DHT22;14235;48.532;8.722;2022-07-10T16:45:20;29.90;35.60
26589;DHT22;14235;48.532;8.722;2022-07-10T16:47:46;29.90;35.40
26589;DHT22;14235;48.532;8.722;2022-07-10T16:50:12;29.80;35.50
26589;DHT22;14235;48.532;8.722;2022-07-10T16:52:37;29.30;35.80
26589;DHT22;14235;48.532;8.722;2022-07-10T16:55:07;28.80;36.40
26589;DHT22;14235;48.532;8.722;2022-07-10T16:57:33;28.70;37.10
26589;DHT22;14235;48.532;8.722;2022-07-10T16:59:58;26.30;40.30
26589;DHT22;14235;48.532;8.722;2022-07-10T17:02:24;25.30;42.10
26589;DHT22;14235;48.532;8.722;2022-07-10T17:04:49;24.50;44.10
26589;DHT22;14235;48.532;8.722;2022-07-10T17:07:15;24.50;44.10
26589;DHT22;14235;48.532;8.722;2022-07-10T17:09:40;23.40;53.60
26589;DHT22;14235;48.532;8.722;2022-07-10T17:12:06;22.70;55.30